Terminal Aerodrome Forecast
Issued by NWS Cleveland, OH

Home | Current Version | Previous Version | Graphics & Text | Print | Product List | Glossary Off
Versions: 1 2 3 4 5 6 7 8 9 10 11 12 13 14 15 16 17 18 19 20 21

000
FTUS41 KCLE 212300
TAFMFD
TAF
KMFD 212324Z 2200/2224 29012G18KT P6SM VCSH SCT025 BKN045
      TEMPO 2200/2203 3SM -SHRA BKN022
     FM220300 31008KT P6SM BKN025
     FM221600 32009KT P6SM BKN035
     FM222200 32007KT P6SM SCT040=

USA.gov is the U.S. government's official web portal to all federal, state and local government web resources and services.